Pierpont, OH (44082)

11:22 AM EDT on September 17, 2014 (GMT -0400)
Ashtabula County | Change Station
CLOSE
Current Station
Airport
Location: Ashtabula,
Elevation: 922 ft
Nearby Weather Stations

Elev 922 ft 41.78 °N, 80.70 °W | Updated 29 minutes ago

Partly Cloudy
Partly Cloudy
60 °F
Feels Like 60 °F
N
8
Wind Variable Wind from SW

Today
High -- | Low -- °F
--% Chance of Precip.
Yesterday
High -- | Low -- °F
Precip. -- in
7:04 AM 7:28 PM
Waning Crescent, 35% visible
Pressure 30.07 in
Visibility 10.0 miles
Clouds Mostly Cloudy 4200 ft
Dew Point 49 °F
Humidity 67%
Rainfall 0.00 in
Snow Depth Not available.
UV 3 out of 12
Pollen 4.10 out of 12
Air Quality Not available.
Flu Activity Not available.
METAR KHZY 171453Z AUTO 22007KT 10SM BKN042 16/09 A3007 RMK AO2 SLP182 T01560094 58004

More Conditions Fewer Conditions

Pressure 30.07 in
Visibility 10.0 miles
Clouds Mostly Cloudy 4200 ft
Dew Point 49 °F
Humidity 67%
Rainfall 0.00 in
Snow Depth Not available.
UV 3 out of 12
Pollen 4.10 out of 12
Air Quality Not available.
Flu Activity Not available.
METAR KHZY 171453Z AUTO 22007KT 10SM BKN042 16/09 A3007 RMK AO2 SLP182 T01560094 58004

More Conditions Fewer Conditions

10-Day Weather Forecast

Almanac

Astronomy

Sep. 17, 2014 Rise Set
Actual Time 7:04 AM EDT 7:28 PM EDT
Civil Twilight 6:36 AM EDT 7:56 PM EDT
Nautical Twilight 6:03 AM EDT 8:28 PM EDT
Astronomical Twilight 5:30 AM EDT 9:02 PM EDT
Moon 12:59 AM EDT 3:40 PM EDT
Length of Visible Light 13h 19m
Length of Day
12h 23m
Tomorrow will be 2m 47s shorter.
Waning Crescent, 35% of the Moon is Illuminated
Today
Waning Crescent
Sep 24
New
Oct 1
First Quarter
Oct 8
Full
Oct 15
Last Quarter

Today's Extremes

State Highs State Lows

Community

WunderPhotos

Upload Photos

1,754,068 photos uploaded!

WunderBlogs® & News

Nearby

Air Quality

  Air Quality AQ Index Pollutant
Yesterday Good
OZONE
Yesterday Good
PM10
Wednesday Good
PM2.5
Wednesday Good
OZONE
Thursday Good
PM2.5
Thursday Good
OZONE
Friday Moderate
PM2.5
Friday Good
OZONE
Saturday Good
PM2.5
Saturday Good
OZONE

Snow Depth

Station Depth Elevation
No new snow has been reported.

Earthquake Activity

City Distance Mag. Time & Date
No recent earthquake activity has been reported nearby.
Minimum magnitude displayed is 2.5.

Coastal Water Temperatures

Place Temperature
Fairport, OH 66.0 °F
Cleveland, OH 66.0 °F

Nearby Weather Stations